Wakonda, South Dakota
Current Conditions -  °F | °C
As of 12:55 AM on Monday 22 Dec 2014 (Local Time) from KYKN Reporting Station
Overcast Overcast  
Wind Chill: 34°   Ceiling: 1000
Heat Index: 39°   Visibility: 8mi
Dew Point: 37°   Wind: 7mph
Humidity: 93%   Direction: 170°S
Pressure: 29.53"   Gusts: NA
Location:  43.01°N, 97.11°W
Report Text: KYKN 220655Z AUTO 17006KT 8SM OVC010 04/03 A2953 RMK AO1 P0006
Loading
Personal Weather Stations






























Interactive Weather Map New forecast layout! Learn more

10-Day Weather Forecast

Advertisements
Track Severe Weather on mobile